Time;durP1;ratioP1;P1;durP2;ratioP2;P2;SDS_P1;SDS_P2;PMS_P1;PMS_P2;Temp;Humidity;BMP_temperature;BMP_pressure;BME280_temperature;BME280_humidity;BME280_pressure;Samples;Min_cycle;Max_cycle;Signal;HPM_P1;HPM_P2
2021/11/07 00:01:03;;;;;;;4.63;2.57;;;9.30;1.00;;;;;;5031800;28;20213;-64
2021/11/07 00:03:34;;;;;;;6.47;2.80;;;9.40;1.00;;;;;;5031972;28;20230;-64
2021/11/07 00:06:07;;;;;;;5.57;3.13;;;9.40;1.00;;;;;;5031586;28;20212;-63
2021/11/07 00:08:45;;;;;;;10.00;3.13;;;9.40;1.00;;;;;;5031677;28;20229;-64
2021/11/07 00:11:23;;;;;;;5.60;2.60;;;9.50;1.00;;;;;;5031795;28;20210;-63
2021/11/07 00:13:51;;;;;;;4.17;2.90;;;9.60;1.00;;;;;;5031507;28;20230;-64
2021/11/07 00:16:24;;;;;;;5.10;2.70;;;9.60;1.00;;;;;;5031465;28;20248;-63
2021/11/07 00:19:03;;;;;;;4.83;3.17;;;9.60;1.00;;;;;;5031783;28;20558;-64
2021/11/07 00:21:32;;;;;;;4.63;3.30;;;9.60;1.00;;;;;;5031514;28;20214;-63
2021/11/07 00:24:02;;;;;;;6.20;3.20;;;9.60;1.00;;;;;;5033792;28;20741;-63
2021/11/07 00:26:34;;;;;;;8.43;3.57;;;9.50;1.00;;;;;;5035254;28;20217;-63
2021/11/07 00:29:05;;;;;;;4.57;3.53;;;9.40;1.00;;;;;;5035327;28;20317;-64
2021/11/07 00:31:41;;;;;;;6.57;4.00;;;9.30;1.00;;;;;;5035230;28;20211;-64
2021/11/07 00:34:45;;;;;;;9.63;4.47;;;9.20;1.00;;;;;;5034960;28;20334;-64
2021/11/07 00:37:12;;;;;;;8.87;4.23;;;9.00;99.90;;;;;;5035174;28;20248;-64
2021/11/07 00:39:45;;;;;;;8.20;4.87;;;8.90;99.90;;;;;;5035191;28;20197;-64
2021/11/07 00:42:18;;;;;;;9.87;4.90;;;8.90;99.90;;;;;;5035029;28;20203;-63
2021/11/07 00:44:54;;;;;;;6.90;4.93;;;8.90;99.90;;;;;;5034962;28;20216;-65
2021/11/07 00:47:32;;;;;;;9.60;5.20;;;8.80;1.00;;;;;;5034853;28;20577;-64
2021/11/07 00:50:03;;;;;;;11.80;5.77;;;8.70;1.00;;;;;;5034903;28;20232;-64
2021/11/07 00:52:34;;;;;;;9.30;5.50;;;8.70;1.00;;;;;;5034721;28;20606;-63
2021/11/07 00:55:08;;;;;;;7.20;5.63;;;8.70;71.50;;;;;;5034766;28;20251;-63
2021/11/07 00:57:48;;;;;;;7.67;5.47;;;8.60;99.90;;;;;;5034782;28;20209;-63
2021/11/07 01:00:24;;;;;;;7.00;5.47;;;8.50;99.90;;;;;;5034850;28;20217;-64
2021/11/07 01:02:53;;;;;;;9.23;6.10;;;8.50;1.00;;;;;;5034594;28;20238;-64
2021/11/07 01:05:24;;;;;;;9.40;5.93;;;8.50;1.00;;;;;;5034082;28;20211;-64
2021/11/07 01:07:51;;;;;;;10.97;6.53;;;8.40;1.00;;;;;;5034767;28;20215;-64
2021/11/07 01:10:18;;;;;;;11.17;6.87;;;8.30;39.00;;;;;;5034499;28;20280;-64
2021/11/07 01:12:46;;;;;;;9.60;6.70;;;8.30;99.90;;;;;;5034458;28;20227;-63
2021/11/07 01:15:13;;;;;;;11.93;7.43;;;8.30;99.90;;;;;;5034031;28;20210;-64
2021/11/07 01:17:41;;;;;;;9.60;7.10;;;8.30;99.90;;;;;;5034314;28;20576;-64
2021/11/07 01:20:10;;;;;;;10.73;7.20;;;8.30;99.90;;;;;;5034474;28;20208;-64
2021/11/07 01:22:47;;;;;;;14.73;8.17;;;8.30;1.00;;;;;;5034255;28;20233;-64
2021/11/07 01:25:14;;;;;;;11.00;7.17;;;8.30;1.00;;;;;;5034127;28;20255;-64
2021/11/07 01:27:42;;;;;;;14.63;8.23;;;8.30;1.00;;;;;;5034402;28;20204;-64
2021/11/07 01:30:16;;;;;;;13.17;9.23;;;8.20;1.00;;;;;;5033948;28;20310;-64
2021/11/07 01:32:46;;;;;;;13.77;7.47;;;8.20;99.90;;;;;;5034060;28;20315;-64
2021/11/07 01:35:17;;;;;;;14.97;8.50;;;8.20;99.90;;;;;;5032899;28;20218;-64
2021/11/07 01:37:54;;;;;;;10.53;8.00;;;8.20;99.90;;;;;;5034208;28;20247;-63
2021/11/07 01:40:24;;;;;;;12.90;8.13;;;8.20;99.90;;;;;;5033931;28;20215;-64
2021/11/07 01:42:55;;;;;;;12.50;8.10;;;8.20;1.00;;;;;;5033750;28;20227;-64
2021/11/07 01:45:26;;;;;;;12.70;8.23;;;8.30;1.00;;;;;;5033728;28;20223;-63
2021/11/07 01:47:56;;;;;;;11.17;8.23;;;8.30;1.00;;;;;;5034063;28;20269;-64
2021/11/07 01:50:22;;;;;;;15.73;9.20;;;8.30;1.00;;;;;;5033978;28;20313;-64
2021/11/07 01:52:54;;;;;;;11.43;9.17;;;8.30;99.90;;;;;;5033631;28;20228;-64
2021/11/07 01:55:21;;;;;;;13.07;9.60;;;8.30;99.90;;;;;;5033319;28;20203;-64
2021/11/07 01:57:49;;;;;;;13.87;9.47;;;8.30;99.90;;;;;;5033701;28;20207;-62
2021/11/07 02:00:19;;;;;;;17.63;10.17;;;8.30;27.60;;;;;;5033745;28;20230;-64
2021/11/07 02:02:49;;;;;;;12.87;9.10;;;8.40;99.90;;;;;;5033438;28;20232;-64
2021/11/07 02:05:15;;;;;;;13.87;9.73;;;8.40;99.90;;;;;;5033163;28;20209;-64
2021/11/07 02:07:42;;;;;;;14.17;9.47;;;8.30;99.90;;;;;;5033345;28;20212;-64
2021/11/07 02:10:12;;;;;;;15.03;9.90;;;8.30;99.90;;;;;;5033532;28;20228;-63
2021/11/07 02:12:40;;;;;;;11.80;9.23;;;8.40;1.00;;;;;;5033201;28;20721;-64
2021/11/07 02:15:10;;;;;;;13.43;9.77;;;8.40;1.00;;;;;;5032789;28;20209;-63
2021/11/07 02:17:37;;;;;;;14.57;9.10;;;8.30;1.00;;;;;;5033307;28;20654;-64
2021/11/07 02:20:10;;;;;;;14.97;9.20;;;8.40;1.00;;;;;;5033122;28;20209;-64
2021/11/07 02:22:39;;;;;;;9.23;8.00;;;8.40;14.30;;;;;;5033229;28;20322;-64
2021/11/07 02:25:07;;;;;;;13.97;8.77;;;8.40;1.00;;;;;;5032880;28;20207;-64
2021/11/07 02:27:34;;;;;;;10.67;8.47;;;8.40;1.00;;;;;;5033235;28;20258;-64
2021/11/07 02:30:01;;;;;;;11.83;8.47;;;8.40;1.00;;;;;;5032968;28;20605;-64
2021/11/07 02:32:28;;;;;;;11.90;7.43;;;8.40;99.90;;;;;;5032746;28;20286;-64
2021/11/07 02:34:57;;;;;;;9.47;7.00;;;8.50;99.90;;;;;;5032688;28;20221;-64
2021/11/07 02:37:24;;;;;;;10.70;8.47;;;8.50;1.00;;;;;;5032713;28;20233;-65
2021/11/07 02:39:52;;;;;;;9.70;7.17;;;8.50;1.00;;;;;;5032724;28;20212;-64
2021/11/07 02:42:19;;;;;;;11.17;7.63;;;8.50;99.90;;;;;;5032715;28;20244;-63
2021/11/07 02:44:46;;;;;;;13.70;8.73;;;8.50;99.90;;;;;;5032295;28;20213;-64
2021/11/07 02:47:14;;;;;;;12.57;8.00;;;8.50;99.90;;;;;;5032341;28;20232;-64
2021/11/07 02:49:42;;;;;;;10.83;8.53;;;8.50;99.90;;;;;;5032722;28;20307;-63
2021/11/07 02:52:11;;;;;;;10.83;8.40;;;8.50;99.90;;;;;;5032642;28;20233;-63
2021/11/07 02:54:39;;;;;;;10.50;7.60;;;8.50;1.00;;;;;;5032167;28;20262;-64
2021/11/07 02:57:09;;;;;;;11.23;7.87;;;8.40;4.70;;;;;;5032493;28;20739;-64
2021/11/07 02:59:39;;;;;;;9.50;7.97;;;8.50;22.70;;;;;;5032641;28;20244;-64
2021/11/07 03:02:07;;;;;;;10.57;8.23;;;8.50;53.60;;;;;;5032471;28;20216;-64
2021/11/07 03:04:35;;;;;;;9.60;7.33;;;8.40;99.90;;;;;;5032422;28;20607;-64
2021/11/07 03:07:02;;;;;;;12.13;8.93;;;8.40;99.90;;;;;;5032341;28;20204;-63
2021/11/07 03:09:32;;;;;;;13.67;8.60;;;8.40;99.90;;;;;;5032333;28;20282;-64
2021/11/07 03:12:00;;;;;;;12.77;8.97;;;8.40;1.00;;;;;;5032267;28;20594;-65
2021/11/07 03:14:31;;;;;;;15.00;10.13;;;8.40;1.00;;;;;;5032105;28;20232;-64
2021/11/07 03:16:59;;;;;;;12.40;9.37;;;8.40;1.00;;;;;;5032326;28;20216;-64
2021/11/07 03:19:27;;;;;;;14.10;9.90;;;8.40;76.10;;;;;;5032434;28;20201;-63
2021/11/07 03:21:56;;;;;;;12.30;10.13;;;8.40;99.90;;;;;;5032494;28;20665;-64
2021/11/07 03:24:23;;;;;;;11.33;9.53;;;8.40;97.70;;;;;;5032070;28;20597;-64
2021/11/07 03:26:50;;;;;;;11.70;9.60;;;8.50;64.30;;;;;;5031624;28;20627;-63
2021/11/07 03:29:18;;;;;;;14.60;10.87;;;8.50;59.20;;;;;;5031985;28;20318;-65
2021/11/07 03:31:50;;;;;;;11.93;10.43;;;8.50;1.00;;;;;;5032197;28;20295;-64
2021/11/07 03:34:24;;;;;;;12.20;10.90;;;8.60;1.00;;;;;;5032026;28;20236;-64
2021/11/07 03:36:52;;;;;;;15.70;10.67;;;8.50;1.00;;;;;;5031810;28;20207;-64
2021/11/07 03:39:20;;;;;;;13.40;12.00;;;8.60;1.00;;;;;;5031890;28;20215;-64
2021/11/07 03:41:47;;;;;;;14.47;12.23;;;8.60;99.90;;;;;;5031859;28;20677;-64
2021/11/07 03:44:16;;;;;;;14.27;12.73;;;8.60;99.90;;;;;;5031959;28;20235;-64
2021/11/07 03:46:47;;;;;;;15.07;12.73;;;8.60;99.90;;;;;;5031596;28;20622;-64
2021/11/07 03:49:14;;;;;;;14.33;12.77;;;8.60;99.90;;;;;;5031953;28;20303;-64
2021/11/07 03:51:41;;;;;;;14.73;12.33;;;8.60;99.90;;;;;;5031730;28;20241;-63
2021/11/07 03:54:09;;;;;;;20.97;14.23;;;8.60;99.90;;;;;;5031625;28;20233;-64
2021/11/07 03:56:35;;;;;;;16.93;13.43;;;8.60;99.90;;;;;;5031768;28;20209;-64
2021/11/07 03:59:02;;;;;;;15.50;13.37;;;8.60;99.90;;;;;;5034504;28;20213;-64
2021/11/07 04:01:29;;;;;;;15.80;14.10;;;8.70;99.90;;;;;;5035878;28;20216;-64
2021/11/07 04:03:57;;;;;;;17.10;14.40;;;8.70;99.90;;;;;;5036035;28;20232;-64
2021/11/07 04:06:24;;;;;;;16.33;13.43;;;8.70;1.00;;;;;;5035422;28;20676;-64
2021/11/07 04:08:50;;;;;;;18.83;15.07;;;8.70;1.00;;;;;;5035588;28;20674;-65
2021/11/07 04:11:17;;;;;;;17.30;13.67;;;8.70;1.00;;;;;;5035882;28;20278;-64
2021/11/07 04:13:46;;;;;;;15.10;13.60;;;8.70;99.90;;;;;;5035807;28;20229;-64
2021/11/07 04:16:14;;;;;;;14.93;13.33;;;8.80;99.90;;;;;;5035217;28;20206;-64
2021/11/07 04:18:42;;;;;;;20.03;14.83;;;8.80;99.90;;;;;;5035530;28;20212;-64
2021/11/07 04:21:10;;;;;;;14.63;12.63;;;8.80;1.00;;;;;;5035292;28;20240;-64
2021/11/07 04:23:37;;;;;;;18.00;14.27;;;8.80;1.00;;;;;;5035668;28;20233;-64
2021/11/07 04:26:05;;;;;;;17.53;14.77;;;8.80;1.00;;;;;;5035244;28;20208;-64
2021/11/07 04:28:31;;;;;;;17.03;15.23;;;8.70;99.90;;;;;;5035442;28;20221;-64
2021/11/07 04:30:58;;;;;;;17.70;14.73;;;8.70;99.90;;;;;;5035256;28;20232;-64
2021/11/07 04:33:25;;;;;;;16.70;14.97;;;8.80;99.90;;;;;;5034875;28;20234;-64
2021/11/07 04:35:52;;;;;;;17.13;14.50;;;8.80;1.00;;;;;;5034799;28;20212;-64
2021/11/07 04:38:20;;;;;;;18.30;15.37;;;8.80;99.90;;;;;;5035128;28;20629;-64
2021/11/07 04:40:47;;;;;;;17.30;14.50;;;8.80;99.90;;;;;;5035408;28;20208;-64
2021/11/07 04:43:14;;;;;;;18.03;15.97;;;8.80;99.90;;;;;;5035231;28;20226;-64
2021/11/07 04:45:41;;;;;;;18.27;15.90;;;8.80;99.90;;;;;;5034665;28;20208;-64
2021/11/07 04:48:08;;;;;;;17.70;15.80;;;8.80;99.90;;;;;;5034856;28;20208;-63
2021/11/07 04:50:37;;;;;;;18.37;16.00;;;8.80;99.90;;;;;;5034922;28;20234;-64
2021/11/07 04:53:05;;;;;;;19.60;15.40;;;8.80;99.90;;;;;;5035345;28;20670;-64
2021/11/07 04:55:33;;;;;;;21.27;17.63;;;8.90;99.90;;;;;;5034811;28;20562;-64
2021/11/07 04:58:00;;;;;;;20.23;17.17;;;8.80;99.90;;;;;;5035081;28;20212;-63
2021/11/07 05:00:27;;;;;;;19.03;16.67;;;8.80;1.00;;;;;;5034616;28;20626;-64
2021/11/07 05:02:54;;;;;;;21.53;16.20;;;8.90;1.00;;;;;;5034491;28;20238;-64
2021/11/07 05:05:21;;;;;;;19.00;16.70;;;8.90;1.00;;;;;;5034366;28;20278;-64
2021/11/07 05:07:48;;;;;;;18.93;16.83;;;8.80;99.90;;;;;;5034720;28;20589;-64
2021/11/07 05:10:15;;;;;;;20.63;16.20;;;8.90;1.00;;;;;;5034491;28;20225;-65
2021/11/07 05:12:44;;;;;;;17.97;15.40;;;8.90;82.60;;;;;;5034439;28;20229;-64
2021/11/07 05:15:11;;;;;;;19.97;16.13;;;8.90;39.30;;;;;;5033950;28;20302;-64
2021/11/07 05:17:38;;;;;;;19.90;15.43;;;8.90;1.00;;;;;;5034631;28;20213;-64
2021/11/07 05:20:06;;;;;;;17.57;15.67;;;8.90;1.00;;;;;;5034296;28;20260;-64
2021/11/07 05:22:37;;;;;;;17.87;14.37;;;8.90;1.00;;;;;;5034482;28;20229;-63
2021/11/07 05:25:05;;;;;;;19.07;14.83;;;8.90;99.90;;;;;;5034015;28;20643;-64
2021/11/07 05:27:32;;;;;;;18.53;13.90;;;9.00;99.90;;;;;;5034219;28;20202;-63
2021/11/07 05:30:00;;;;;;;18.07;14.27;;;9.00;99.90;;;;;;5034302;28;20270;-64
2021/11/07 05:32:26;;;;;;;18.50;14.67;;;9.00;99.90;;;;;;5034119;28;20228;-64
2021/11/07 05:34:53;;;;;;;15.17;12.27;;;9.00;35.90;;;;;;5033585;28;20275;-64
2021/11/07 05:37:19;;;;;;;17.63;14.40;;;9.10;99.90;;;;;;5033819;28;20244;-63
2021/11/07 05:39:46;;;;;;;16.77;12.73;;;9.00;99.90;;;;;;5034112;28;20206;-64
2021/11/07 05:42:13;;;;;;;17.90;12.47;;;9.10;99.90;;;;;;5033729;28;20216;-64
2021/11/07 05:44:40;;;;;;;17.57;13.60;;;9.10;1.00;;;;;;5033667;28;20213;-63
2021/11/07 05:47:08;;;;;;;16.23;12.97;;;9.10;33.90;;;;;;5034061;28;20584;-63
2021/11/07 05:49:35;;;;;;;12.10;9.90;;;9.00;99.90;;;;;;5033759;28;20212;-64
2021/11/07 05:52:02;;;;;;;15.67;12.43;;;9.10;99.90;;;;;;5033818;28;20701;-63
2021/11/07 05:54:28;;;;;;;15.67;12.17;;;9.00;99.90;;;;;;5033608;28;20309;-64
2021/11/07 05:56:55;;;;;;;16.27;13.00;;;9.10;99.90;;;;;;5033450;28;20236;-64
2021/11/07 05:59:22;;;;;;;17.70;14.03;;;9.10;1.00;;;;;;5033795;28;20276;-63
2021/11/07 06:01:49;;;;;;;17.60;12.73;;;9.10;1.00;;;;;;5033625;28;20202;-64
2021/11/07 06:04:17;;;;;;;16.20;12.10;;;9.10;1.00;;;;;;5033521;28;20241;-64
2021/11/07 06:06:43;;;;;;;17.10;12.67;;;9.00;1.00;;;;;;5033048;28;20293;-63
2021/11/07 06:09:10;;;;;;;15.50;12.67;;;9.10;11.90;;;;;;5033449;28;20244;-64
2021/11/07 06:11:37;;;;;;;16.03;12.37;;;9.00;83.20;;;;;;5033525;28;20236;-64
2021/11/07 06:14:04;;;;;;;14.93;11.70;;;9.10;99.90;;;;;;5033133;28;20778;-63
2021/11/07 06:16:31;;;;;;;16.00;12.53;;;9.10;99.90;;;;;;5033012;28;20705;-64
2021/11/07 06:18:58;;;;;;;18.10;14.07;;;9.10;99.90;;;;;;5033579;28;20213;-64
2021/11/07 06:21:27;;;;;;;16.30;14.10;;;9.10;99.90;;;;;;5032728;28;20264;-63
2021/11/07 06:23:55;;;;;;;19.00;15.63;;;9.10;99.90;;;;;;5032886;28;20231;-63
2021/11/07 06:26:23;;;;;;;20.97;15.83;;;9.10;99.90;;;;;;5033147;28;20224;-63
2021/11/07 06:28:51;;;;;;;22.57;16.33;;;9.20;99.90;;;;;;5032890;28;20421;-63
2021/11/07 06:31:21;;;;;;;20.87;15.83;;;9.20;99.90;;;;;;5033270;28;20229;-64
2021/11/07 06:33:48;;;;;;;19.53;15.00;;;9.20;99.90;;;;;;5032761;28;20315;-64
2021/11/07 06:36:14;;;;;;;18.77;14.17;;;9.20;99.90;;;;;;5032530;28;20276;-63
2021/11/07 06:38:42;;;;;;;18.10;13.33;;;9.30;99.90;;;;;;5032980;28;20309;-63
2021/11/07 06:41:09;;;;;;;15.77;13.73;;;9.20;99.90;;;;;;5033080;28;20213;-63
2021/11/07 06:43:36;;;;;;;17.03;14.10;;;9.30;99.90;;;;;;5032882;28;20276;-63
2021/11/07 06:46:02;;;;;;;15.27;11.80;;;9.30;99.90;;;;;;5032601;28;20217;-64
2021/11/07 06:48:29;;;;;;;15.30;13.30;;;9.30;99.90;;;;;;5032861;28;20277;-63
2021/11/07 06:50:56;;;;;;;17.47;12.83;;;9.30;99.90;;;;;;5032878;28;20230;-64
2021/11/07 06:53:24;;;;;;;15.03;12.77;;;9.30;99.90;;;;;;5032417;28;20722;-64
2021/11/07 06:55:53;;;;;;;15.43;12.23;;;9.30;99.90;;;;;;5032607;28;20771;-64
2021/11/07 06:58:19;;;;;;;18.20;14.17;;;9.30;99.90;;;;;;5032657;28;20210;-64
2021/11/07 07:00:46;;;;;;;19.53;15.63;;;9.30;99.90;;;;;;5032560;28;20205;-63
2021/11/07 07:03:13;;;;;;;20.37;14.43;;;9.40;99.90;;;;;;5032402;28;20467;-64
2021/11/07 07:05:39;;;;;;;19.00;15.57;;;9.40;99.90;;;;;;5032009;28;20619;-63
2021/11/07 07:08:11;;;;;;;21.83;16.53;;;9.40;74.80;;;;;;5032399;28;20740;-63
2021/11/07 07:10:48;;;;;;;22.47;16.13;;;9.30;92.00;;;;;;5032418;28;20223;-63
2021/11/07 07:13:21;;;;;;;17.50;13.80;;;9.40;96.00;;;;;;5032414;28;20229;-63
2021/11/07 07:15:52;;;;;;;20.07;15.07;;;9.40;96.30;;;;;;5032035;28;20216;-62
2021/11/07 07:18:25;;;;;;;17.97;14.90;;;9.40;1.00;;;;;;5032628;28;20305;-64
2021/11/07 07:21:06;;;;;;;19.90;15.27;;;9.50;1.00;;;;;;5032633;28;20213;-63
2021/11/07 07:23:54;;;;;;;22.27;15.13;;;9.40;1.00;;;;;;5032127;28;20226;-64
2021/11/07 07:26:43;;;;;;;18.57;15.30;;;9.40;1.00;;;;;;5031837;28;20210;-64
2021/11/07 07:29:21;;;;;;;19.80;15.67;;;9.40;1.00;;;;;;5032103;28;20213;-62
2021/11/07 07:32:00;;;;;;;25.97;17.00;;;9.40;1.00;;;;;;5032167;28;20262;-63
2021/11/07 07:34:27;;;;;;;22.90;16.70;;;9.50;1.00;;;;;;5031471;28;20238;-67
2021/11/07 07:36:55;;;;;;;22.23;17.97;;;9.50;1.00;;;;;;5031692;28;20244;-64
2021/11/07 07:39:22;;;;;;;23.63;17.43;;;9.50;1.00;;;;;;5031842;28;20221;-64
2021/11/07 07:41:49;;;;;;;22.90;17.67;;;9.50;1.00;;;;;;5032102;28;20216;-64
2021/11/07 07:44:18;;;;;;;26.13;18.50;;;9.50;1.00;;;;;;5031901;28;20276;-63
2021/11/07 07:46:46;;;;;;;23.10;18.07;;;9.50;1.00;;;;;;5031553;28;20205;-64
2021/11/07 07:49:15;;;;;;;25.60;18.10;;;9.60;99.90;;;;;;5031639;28;20213;-64
2021/11/07 07:51:42;;;;;;;25.47;17.23;;;9.60;99.90;;;;;;5031912;28;20315;-64
2021/11/07 07:54:09;;;;;;;28.33;19.10;;;9.60;15.60;;;;;;5031999;28;20236;-63
2021/11/07 07:56:36;;;;;;;26.97;17.83;;;9.60;1.00;;;;;;5031856;28;20206;-64
2021/11/07 07:59:04;;;;;;;25.07;17.77;;;9.70;1.00;;;;;;5032008;28;20221;-64
2021/11/07 08:01:32;;;;;;;26.73;17.33;;;9.70;99.90;;;;;;5031971;28;20210;-63
2021/11/07 08:03:59;;;;;;;22.63;16.87;;;9.70;94.00;;;;;;5031613;28;20230;-64
2021/11/07 08:06:26;;;;;;;29.27;18.70;;;9.70;1.00;;;;;;5031686;28;20208;-64
2021/11/07 08:08:53;;;;;;;29.50;18.73;;;9.60;1.00;;;;;;5031929;28;20256;-63
2021/11/07 08:11:20;;;;;;;26.03;18.37;;;9.60;12.30;;;;;;5031796;28;20313;-63
2021/11/07 08:13:47;;;;;;;28.13;19.33;;;9.60;99.90;;;;;;5031675;28;20230;-64
2021/11/07 08:16:14;;;;;;;31.23;20.37;;;9.60;99.90;;;;;;5031179;28;20214;-64
2021/11/07 08:18:43;;;;;;;27.07;20.10;;;9.70;99.90;;;;;;5031618;28;20209;-64
2021/11/07 08:21:09;;;;;;;30.57;20.10;;;9.70;99.90;;;;;;5031556;28;20199;-63
2021/11/07 08:23:36;;;;;;;26.97;19.13;;;9.70;99.90;;;;;;5031631;28;20240;-63
2021/11/07 08:26:04;;;;;;;31.40;21.70;;;9.70;99.90;;;;;;5031479;28;20293;-63
2021/11/07 08:28:32;;;;;;;30.47;21.80;;;9.80;99.90;;;;;;5031478;28;20301;-62
2021/11/07 08:31:05;;;;;;;34.53;20.50;;;9.80;99.90;;;;;;5031213;28;20834;-62
2021/11/07 08:33:32;;;;;;;28.63;21.77;;;9.80;99.90;;;;;;5031540;28;20245;-63
2021/11/07 08:36:05;;;;;;;31.17;20.30;;;9.80;99.90;;;;;;5031226;28;20210;-66
2021/11/07 08:38:36;;;;;;;26.87;20.37;;;9.80;99.90;;;;;;5031274;28;20240;-62
2021/11/07 08:41:03;;;;;;;31.17;20.03;;;9.80;99.90;;;;;;5031738;28;20273;-63
2021/11/07 09:02:56;;;;;;;24.03;14.40;;;10.20;99.90;;;;;;5034700;28;20217;-64
2021/11/07 09:05:28;;;;;;;23.20;11.90;;;10.20;1.00;;;;;;5034591;28;20234;-64
2021/11/07 09:08:12;;;;;;;16.30;11.60;;;10.20;99.90;;;;;;5034544;28;20565;-64
2021/11/07 09:10:38;;;;;;;18.60;10.00;;;10.20;99.90;;;;;;5034415;28;20675;-63
2021/11/07 09:13:09;;;;;;;19.37;9.80;;;10.10;1.00;;;;;;5034711;28;20230;-64
2021/11/07 09:15:38;;;;;;;16.73;10.00;;;10.20;1.00;;;;;;5034084;28;20663;-64
2021/11/07 09:18:05;;;;;;;21.00;10.53;;;10.30;19.90;;;;;;5034371;28;20671;-63
2021/11/07 09:20:36;;;;;;;17.87;9.03;;;10.50;15.50;;;;;;5034662;28;20218;-64
2021/11/07 09:23:07;;;;;;;22.57;9.37;;;10.50;1.00;;;;;;5034665;28;20265;-63
2021/11/07 09:25:37;;;;;;;22.17;9.00;;;10.60;99.90;;;;;;5030349;28;20620;-64
2021/11/07 09:28:08;;;;;;;18.20;7.93;;;10.70;99.90;;;;;;5034170;28;20302;-64
2021/11/07 09:30:42;;;;;;;21.23;7.30;;;10.90;99.90;;;;;;5034010;28;20213;-64
2021/11/07 09:33:13;;;;;;;15.60;6.13;;;11.00;99.90;;;;;;5034022;28;20240;-64
2021/11/07 09:35:47;;;;;;;14.30;6.03;;;11.10;99.90;;;;;;5033595;28;20210;-64
2021/11/07 09:38:19;;;;;;;15.27;5.57;;;11.10;99.90;;;;;;5034092;28;20242;-64
2021/11/07 09:40:57;;;;;;;25.30;6.63;;;11.20;99.90;;;;;;5033932;28;20729;-64
2021/11/07 09:43:39;;;;;;;18.03;5.70;;;11.30;99.90;;;;;;5033954;28;20240;-64
2021/11/07 09:46:13;;;;;;;20.07;5.50;;;11.50;97.60;;;;;;5033163;28;20214;-64
2021/11/07 09:48:42;;;;;;;14.30;4.83;;;11.50;46.70;;;;;;5033698;28;20693;-64
2021/11/07 09:51:16;;;;;;;16.80;5.33;;;11.30;17.10;;;;;;5033719;28;20222;-62
2021/11/07 09:53:45;;;;;;;13.80;4.00;;;11.20;4.70;;;;;;5033861;28;20245;-64
2021/11/07 09:56:12;;;;;;;19.73;5.73;;;11.10;4.60;;;;;;5032307;28;20221;-64
2021/11/07 09:58:42;;;;;;;16.17;5.87;;;11.10;18.40;;;;;;5033736;28;20680;-64
2021/11/07 10:01:09;;;;;;;17.03;4.37;;;11.10;4.70;;;;;;5033328;28;20702;-64
2021/11/07 10:03:40;;;;;;;19.87;5.67;;;10.90;1.00;;;;;;5033608;28;20226;-63
2021/11/07 10:06:24;;;;;;;15.90;4.20;;;10.80;1.00;;;;;;5033413;28;20242;-64
2021/11/07 10:08:52;;;;;;;14.07;4.30;;;10.80;1.00;;;;;;5033216;28;20206;-63
2021/11/07 10:11:19;;;;;;;12.83;3.87;;;11.00;1.00;;;;;;5033369;28;20257;-64
2021/11/07 10:14:02;;;;;;;16.87;4.30;;;11.20;1.00;;;;;;5033228;28;20222;-63
2021/11/07 10:16:38;;;;;;;12.43;4.07;;;11.40;1.00;;;;;;5032756;28;20746;-64
2021/11/07 10:19:22;;;;;;;18.70;4.90;;;11.50;1.00;;;;;;5033444;28;20209;-65
2021/11/07 10:21:51;;;;;;;16.07;4.00;;;11.60;1.00;;;;;;5033339;28;20297;-65
2021/11/07 10:24:23;;;;;;;20.97;4.47;;;11.50;1.00;;;;;;5025574;28;20644;-66
2021/11/07 10:26:57;;;;;;;18.60;4.03;;;11.30;1.00;;;;;;5032804;28;20210;-63
2021/11/07 10:29:26;;;;;;;19.63;5.67;;;11.10;1.00;;;;;;5032972;28;20217;-62
2021/11/07 10:31:59;;;;;;;24.40;8.20;;;11.00;1.00;;;;;;5032232;28;20267;-63
2021/11/07 10:34:38;;;;;;;15.90;4.20;;;11.00;1.00;;;;;;5032170;28;20307;-65
2021/11/07 10:37:39;;;;;;;11.40;3.07;;;10.90;1.00;;;;;;5032576;28;20725;-65
2021/11/07 10:43:37;;;;;;;16.00;3.73;;;10.80;1.00;;;;;;4996555;28;20229;-66
2021/11/07 10:46:30;;;;;;;14.50;3.67;;;10.80;1.00;;;;;;5032561;28;20646;-65
2021/11/07 10:52:07;;;;;;;17.20;4.37;;;10.80;1.00;;;;;;5032192;28;20231;-66
2021/11/07 10:54:41;;;;;;;13.20;3.47;;;10.80;1.00;;;;;;5034262;28;20206;-65
2021/11/07 10:57:15;;;;;;;20.23;4.03;;;10.90;1.00;;;;;;5034833;28;20244;-64
2021/11/07 10:59:42;;;;;;;14.87;3.70;;;10.80;1.00;;;;;;5034969;28;20289;-64
2021/11/07 11:02:37;;;;;;;13.23;3.10;;;10.90;1.00;;;;;;5034870;28;20498;-64
2021/11/07 11:05:07;;;;;;;16.67;3.37;;;11.00;1.00;;;;;;5034381;28;20211;-64
2021/11/07 11:07:48;;;;;;;18.47;4.40;;;11.10;1.00;;;;;;5034727;28;20715;-64
2021/11/07 11:10:18;;;;;;;16.80;3.20;;;11.20;1.00;;;;;;5034635;28;20213;-65
2021/11/07 11:13:17;;;;;;;14.00;2.93;;;11.20;1.00;;;;;;5035362;28;20325;-64
2021/11/07 11:15:58;;;;;;;18.73;3.10;;;11.20;1.00;;;;;;5031792;28;20211;-65
2021/11/07 11:18:44;;;;;;;15.87;3.73;;;11.10;1.00;;;;;;5032493;28;20206;-65
2021/11/07 11:24:08;;;;;;;10.93;2.50;;;11.00;1.00;;;;;;5031527;28;20228;-63
2021/11/07 11:29:29;;;;;;;17.07;3.37;;;11.00;1.00;;;;;;5031232;28;20264;-63
2021/11/07 11:31:58;;;;;;;16.27;3.30;;;11.10;1.00;;;;;;5031732;28;20658;-64
2021/11/07 11:34:28;;;;;;;11.20;2.73;;;11.10;1.00;;;;;;5031177;28;20230;-65
2021/11/07 11:37:01;;;;;;;12.70;3.00;;;11.00;1.00;;;;;;5031470;28;20249;-63
2021/11/07 11:39:33;;;;;;;16.50;3.40;;;11.00;1.00;;;;;;5031866;28;20209;-62
2021/11/07 11:42:05;;;;;;;13.40;3.10;;;11.10;1.00;;;;;;5032098;28;20203;-62
2021/11/07 11:44:34;;;;;;;10.80;2.60;;;11.10;1.00;;;;;;5031328;28;20773;-61
2021/11/07 11:47:18;;;;;;;12.73;3.07;;;11.10;1.00;;;;;;5031639;28;20210;-62
2021/11/07 11:50:12;;;;;;;13.27;3.23;;;11.00;1.00;;;;;;5031812;28;20217;-64
2021/11/07 11:52:48;;;;;;;14.83;2.90;;;10.90;1.00;;;;;;5031193;28;20704;-61
2021/11/07 11:58:23;;;;;;;17.57;3.13;;;11.10;1.00;;;;;;5024231;28;20267;-62
2021/11/07 12:00:57;;;;;;;14.57;3.07;;;11.10;1.00;;;;;;5031814;28;20210;-63
2021/11/07 12:03:42;;;;;;;12.63;3.43;;;11.20;1.00;;;;;;5030839;28;20299;-62
2021/11/07 12:06:26;;;;;;;18.67;3.43;;;11.40;1.00;;;;;;5030993;28;20252;-61
2021/11/07 12:09:34;;;;;;;13.67;3.40;;;11.50;1.00;;;;;;5031627;28;20210;-61
2021/11/07 12:12:08;;;;;;;16.70;3.77;;;11.60;1.00;;;;;;5031138;28;20229;-62
2021/11/07 12:14:55;;;;;;;18.17;2.87;;;11.60;1.00;;;;;;5030760;28;20217;-61
2021/11/07 12:17:32;;;;;;;13.10;2.77;;;11.60;1.00;;;;;;5031199;28;20214;-63
2021/11/07 12:20:00;;;;;;;10.93;2.93;;;11.60;1.00;;;;;;5033993;28;20210;-66
2021/11/07 12:22:31;;;;;;;17.03;3.10;;;11.60;1.00;;;;;;5034793;28;20236;-64
2021/11/07 12:25:05;;;;;;;9.77;2.70;;;11.70;1.00;;;;;;5034852;28;20268;-63
2021/11/07 12:27:36;;;;;;;16.20;2.90;;;11.60;1.00;;;;;;5035469;28;20250;-63
2021/11/07 12:30:23;;;;;;;11.83;2.47;;;11.40;1.00;;;;;;5035238;28;20423;-65
2021/11/07 12:33:02;;;;;;;15.63;3.33;;;11.30;1.00;;;;;;5034429;28;20710;-66
2021/11/07 12:35:36;;;;;;;13.47;3.10;;;11.20;1.00;;;;;;5034593;28;20213;-69
2021/11/07 12:40:58;;;;;;;12.57;2.93;;;11.00;1.00;;;;;;5034732;28;20210;-65
2021/11/07 12:43:34;;;;;;;11.80;2.50;;;10.80;1.00;;;;;;5034632;28;20225;-63
2021/11/07 12:46:24;;;;;;;11.67;3.17;;;10.80;1.00;;;;;;5034638;28;20256;-62
2021/11/07 12:48:54;;;;;;;8.63;2.30;;;10.80;1.00;;;;;;5034720;28;20217;-64
2021/11/07 12:51:31;;;;;;;10.57;2.87;;;11.10;1.00;;;;;;5034535;28;20252;-63
2021/11/07 12:54:06;;;;;;;16.33;3.47;;;11.20;1.00;;;;;;5034153;28;20710;-63
2021/11/07 12:56:41;;;;;;;9.80;2.60;;;11.30;1.00;;;;;;5034409;28;20205;-63
2021/11/07 12:59:11;;;;;;;12.07;3.37;;;11.30;1.00;;;;;;5034528;28;20209;-65
2021/11/07 13:02:05;;;;;;;12.80;2.43;;;11.30;1.00;;;;;;5034341;28;20213;-65
2021/11/07 13:04:40;;;;;;;13.40;2.67;;;11.40;1.00;;;;;;5034105;28;20260;-62
2021/11/07 13:07:07;;;;;;;10.57;2.90;;;11.30;1.00;;;;;;5034438;28;20209;-63
2021/11/07 13:09:39;;;;;;;9.53;2.50;;;11.30;1.00;;;;;;5034497;28;20212;-63
2021/11/07 13:12:15;;;;;;;20.87;3.37;;;11.30;1.00;;;;;;5034534;28;20249;-62
2021/11/07 13:15:04;;;;;;;12.97;3.43;;;11.20;1.00;;;;;;5033899;28;20206;-62
2021/11/07 13:17:43;;;;;;;13.17;2.50;;;11.20;1.00;;;;;;5034367;28;20233;-62
2021/11/07 13:20:39;;;;;;;12.90;2.90;;;11.20;1.00;;;;;;5035834;28;20300;-63
2021/11/07 13:23:14;;;;;;;11.07;2.80;;;11.20;1.00;;;;;;5034865;28;20222;-63
2021/11/07 13:25:47;;;;;;;13.93;3.07;;;11.20;1.00;;;;;;5034206;28;20242;-63
2021/11/07 13:28:22;;;;;;;11.53;2.93;;;11.20;1.00;;;;;;5034335;28;20221;-64
2021/11/07 13:31:04;;;;;;;11.43;2.60;;;11.20;1.00;;;;;;5032839;28;20249;-64
2021/11/07 13:33:31;;;;;;;14.83;3.23;;;11.20;1.00;;;;;;5033395;28;20682;-64
2021/11/07 13:36:00;;;;;;;17.77;3.17;;;11.20;1.00;;;;;;5034292;28;20264;-64
2021/11/07 13:38:30;;;;;;;17.37;2.50;;;11.10;1.00;;;;;;5033371;28;20673;-63
2021/11/07 13:40:57;;;;;;;16.57;3.30;;;10.90;1.00;;;;;;5033805;28;20239;-63
2021/11/07 13:43:28;;;;;;;9.70;2.47;;;10.90;1.00;;;;;;5033284;28;20222;-63